sensor_id;sensor_type;location;lat;lon;timestamp;temperature;humidity
27667;DHT22;15074;50.940;5.282;2023-10-13T00:02:04;17.90;99.90
27667;DHT22;15074;50.940;5.282;2023-10-13T00:04:31;18.00;99.90
27667;DHT22;15074;50.940;5.282;2023-10-13T00:07:01;18.00;99.90
27667;DHT22;15074;50.940;5.282;2023-10-13T00:09:28;18.00;99.90
27667;DHT22;15074;50.940;5.282;2023-10-13T00:12:05;18.00;99.90
27667;DHT22;15074;50.940;5.282;2023-10-13T00:14:40;18.00;99.90
27667;DHT22;15074;50.940;5.282;2023-10-13T00:17:10;18.00;99.90
27667;DHT22;15074;50.940;5.282;2023-10-13T00:19:46;18.00;99.90
27667;DHT22;15074;50.940;5.282;2023-10-13T00:22:15;17.90;99.90
27667;DHT22;15074;50.940;5.282;2023-10-13T00:24:45;17.80;99.90
27667;DHT22;15074;50.940;5.282;2023-10-13T00:27:20;17.90;99.90
27667;DHT22;15074;50.940;5.282;2023-10-13T00:30:00;17.90;99.90
27667;DHT22;15074;50.940;5.282;2023-10-13T00:32:57;17.80;99.90
27667;DHT22;15074;50.940;5.282;2023-10-13T00:35:26;17.80;99.90
27667;DHT22;15074;50.940;5.282;2023-10-13T00:37:55;17.80;99.90
27667;DHT22;15074;50.940;5.282;2023-10-13T00:40:23;17.80;99.90
27667;DHT22;15074;50.940;5.282;2023-10-13T00:42:55;17.80;99.90
27667;DHT22;15074;50.940;5.282;2023-10-13T00:45:31;17.80;99.90
27667;DHT22;15074;50.940;5.282;2023-10-13T00:47:59;17.80;99.90
27667;DHT22;15074;50.940;5.282;2023-10-13T00:50:26;17.80;99.90
27667;DHT22;15074;50.940;5.282;2023-10-13T00:52:53;17.80;99.90
27667;DHT22;15074;50.940;5.282;2023-10-13T00:55:21;17.80;99.90
27667;DHT22;15074;50.940;5.282;2023-10-13T00:57:51;17.80;99.90
27667;DHT22;15074;50.940;5.282;2023-10-13T01:00:19;17.80;99.90
27667;DHT22;15074;50.940;5.282;2023-10-13T01:02:49;17.80;99.90
27667;DHT22;15074;50.940;5.282;2023-10-13T01:05:22;17.90;99.90
27667;DHT22;15074;50.940;5.282;2023-10-13T01:07:49;17.90;99.90
27667;DHT22;15074;50.940;5.282;2023-10-13T01:10:19;17.90;99.90
27667;DHT22;15074;50.940;5.282;2023-10-13T01:12:46;17.90;99.90
27667;DHT22;15074;50.940;5.282;2023-10-13T01:15:13;17.90;99.90
27667;DHT22;15074;50.940;5.282;2023-10-13T01:17:42;17.80;99.90
27667;DHT22;15074;50.940;5.282;2023-10-13T01:20:10;17.80;99.90
27667;DHT22;15074;50.940;5.282;2023-10-13T01:22:38;17.80;99.90
27667;DHT22;15074;50.940;5.282;2023-10-13T01:25:04;17.70;99.90
27667;DHT22;15074;50.940;5.282;2023-10-13T01:27:39;17.70;99.90
27667;DHT22;15074;50.940;5.282;2023-10-13T01:30:06;17.70;99.90
27667;DHT22;15074;50.940;5.282;2023-10-13T01:32:35;17.70;99.90
27667;DHT22;15074;50.940;5.282;2023-10-13T01:35:11;17.70;99.90
27667;DHT22;15074;50.940;5.282;2023-10-13T01:37:36;17.80;99.90
27667;DHT22;15074;50.940;5.282;2023-10-13T01:40:02;17.80;99.90
27667;DHT22;15074;50.940;5.282;2023-10-13T01:42:29;17.80;99.90
27667;DHT22;15074;50.940;5.282;2023-10-13T01:44:56;17.70;99.90
27667;DHT22;15074;50.940;5.282;2023-10-13T01:47:28;17.80;99.90
27667;DHT22;15074;50.940;5.282;2023-10-13T01:49:54;17.70;99.90
27667;DHT22;15074;50.940;5.282;2023-10-13T01:52:23;17.70;99.90
27667;DHT22;15074;50.940;5.282;2023-10-13T01:54:50;17.70;99.90
27667;DHT22;15074;50.940;5.282;2023-10-13T01:57:17;17.70;99.90
27667;DHT22;15074;50.940;5.282;2023-10-13T01:59:49;17.70;99.90
27667;DHT22;15074;50.940;5.282;2023-10-13T02:02:15;17.80;99.90
27667;DHT22;15074;50.940;5.282;2023-10-13T02:04:45;17.70;99.90
27667;DHT22;15074;50.940;5.282;2023-10-13T02:07:37;17.70;99.90
27667;DHT22;15074;50.940;5.282;2023-10-13T02:10:04;17.80;99.90
27667;DHT22;15074;50.940;5.282;2023-10-13T02:12:31;17.80;99.90
27667;DHT22;15074;50.940;5.282;2023-10-13T02:15:12;17.80;99.90
27667;DHT22;15074;50.940;5.282;2023-10-13T02:17:39;17.70;99.90
27667;DHT22;15074;50.940;5.282;2023-10-13T02:20:08;17.80;99.90
27667;DHT22;15074;50.940;5.282;2023-10-13T02:22:39;17.80;99.90
27667;DHT22;15074;50.940;5.282;2023-10-13T02:25:17;17.80;99.90
27667;DHT22;15074;50.940;5.282;2023-10-13T02:28:03;17.80;99.90
27667;DHT22;15074;50.940;5.282;2023-10-13T02:30:38;17.80;99.90
27667;DHT22;15074;50.940;5.282;2023-10-13T02:33:04;17.80;99.90
27667;DHT22;15074;50.940;5.282;2023-10-13T02:35:32;17.90;99.90
27667;DHT22;15074;50.940;5.282;2023-10-13T02:38:09;17.90;99.90
27667;DHT22;15074;50.940;5.282;2023-10-13T02:40:38;17.80;99.90
27667;DHT22;15074;50.940;5.282;2023-10-13T02:43:04;17.90;99.90
27667;DHT22;15074;50.940;5.282;2023-10-13T02:45:32;17.80;99.90
27667;DHT22;15074;50.940;5.282;2023-10-13T02:47:58;17.80;99.90
27667;DHT22;15074;50.940;5.282;2023-10-13T02:50:43;17.80;99.90
27667;DHT22;15074;50.940;5.282;2023-10-13T02:53:09;17.90;99.90
27667;DHT22;15074;50.940;5.282;2023-10-13T02:55:49;17.90;99.90
27667;DHT22;15074;50.940;5.282;2023-10-13T02:58:15;17.90;99.90
27667;DHT22;15074;50.940;5.282;2023-10-13T03:00:40;17.90;99.90
27667;DHT22;15074;50.940;5.282;2023-10-13T03:03:06;17.90;99.90
27667;DHT22;15074;50.940;5.282;2023-10-13T03:05:36;17.90;99.90
27667;DHT22;15074;50.940;5.282;2023-10-13T03:08:05;17.90;99.90
27667;DHT22;15074;50.940;5.282;2023-10-13T03:10:32;17.90;99.90
27667;DHT22;15074;50.940;5.282;2023-10-13T03:12:58;18.00;99.90
27667;DHT22;15074;50.940;5.282;2023-10-13T03:15:24;18.00;99.90
27667;DHT22;15074;50.940;5.282;2023-10-13T03:17:56;18.00;99.90
27667;DHT22;15074;50.940;5.282;2023-10-13T03:20:24;18.00;99.90
27667;DHT22;15074;50.940;5.282;2023-10-13T03:22:59;17.90;99.90
27667;DHT22;15074;50.940;5.282;2023-10-13T03:25:25;18.00;99.90
27667;DHT22;15074;50.940;5.282;2023-10-13T03:27:56;17.90;99.90
27667;DHT22;15074;50.940;5.282;2023-10-13T03:30:21;17.90;99.90
27667;DHT22;15074;50.940;5.282;2023-10-13T03:32:55;18.00;99.90
27667;DHT22;15074;50.940;5.282;2023-10-13T03:35:22;17.90;99.90
27667;DHT22;15074;50.940;5.282;2023-10-13T03:37:54;17.90;99.90
27667;DHT22;15074;50.940;5.282;2023-10-13T03:40:21;18.00;99.90
27667;DHT22;15074;50.940;5.282;2023-10-13T03:42:48;17.90;99.90
27667;DHT22;15074;50.940;5.282;2023-10-13T03:45:26;17.90;99.90
27667;DHT22;15074;50.940;5.282;2023-10-13T03:47:52;17.90;99.90
27667;DHT22;15074;50.940;5.282;2023-10-13T03:50:21;18.00;99.90
27667;DHT22;15074;50.940;5.282;2023-10-13T03:52:57;17.90;99.90
27667;DHT22;15074;50.940;5.282;2023-10-13T03:55:24;17.90;99.90
27667;DHT22;15074;50.940;5.282;2023-10-13T03:57:52;17.90;99.90
27667;DHT22;15074;50.940;5.282;2023-10-13T04:00:20;17.90;99.90
27667;DHT22;15074;50.940;5.282;2023-10-13T04:02:50;18.00;99.90
27667;DHT22;15074;50.940;5.282;2023-10-13T04:05:32;17.90;99.90
27667;DHT22;15074;50.940;5.282;2023-10-13T04:08:06;17.90;99.90
27667;DHT22;15074;50.940;5.282;2023-10-13T04:10:52;17.90;99.90
27667;DHT22;15074;50.940;5.282;2023-10-13T04:13:18;17.90;99.90
27667;DHT22;15074;50.940;5.282;2023-10-13T04:16:04;17.90;99.90
27667;DHT22;15074;50.940;5.282;2023-10-13T04:18:48;18.00;99.90
27667;DHT22;15074;50.940;5.282;2023-10-13T04:21:23;18.00;99.90
27667;DHT22;15074;50.940;5.282;2023-10-13T04:24:11;18.00;99.90
27667;DHT22;15074;50.940;5.282;2023-10-13T04:26:42;18.00;99.90
27667;DHT22;15074;50.940;5.282;2023-10-13T04:29:28;18.00;99.90
27667;DHT22;15074;50.940;5.282;2023-10-13T04:32:12;18.00;99.90
27667;DHT22;15074;50.940;5.282;2023-10-13T04:34:44;18.00;99.90
27667;DHT22;15074;50.940;5.282;2023-10-13T04:37:12;18.00;99.90
27667;DHT22;15074;50.940;5.282;2023-10-13T04:39:57;18.00;99.90
27667;DHT22;15074;50.940;5.282;2023-10-13T04:42:35;18.00;99.90
27667;DHT22;15074;50.940;5.282;2023-10-13T04:45:23;18.00;99.90
27667;DHT22;15074;50.940;5.282;2023-10-13T04:48:01;18.00;99.90
27667;DHT22;15074;50.940;5.282;2023-10-13T04:50:47;18.00;99.90
27667;DHT22;15074;50.940;5.282;2023-10-13T04:53:18;18.00;99.90
27667;DHT22;15074;50.940;5.282;2023-10-13T04:56:00;18.00;99.90
27667;DHT22;15074;50.940;5.282;2023-10-13T04:58:32;18.00;99.90
27667;DHT22;15074;50.940;5.282;2023-10-13T05:01:04;18.00;99.90
27667;DHT22;15074;50.940;5.282;2023-10-13T05:04:02;18.00;99.90
27667;DHT22;15074;50.940;5.282;2023-10-13T05:06:28;18.00;99.90
27667;DHT22;15074;50.940;5.282;2023-10-13T05:09:09;18.00;99.90
27667;DHT22;15074;50.940;5.282;2023-10-13T05:11:53;18.00;99.90
27667;DHT22;15074;50.940;5.282;2023-10-13T05:14:38;18.00;99.90
27667;DHT22;15074;50.940;5.282;2023-10-13T05:17:22;18.00;99.90
27667;DHT22;15074;50.940;5.282;2023-10-13T05:20:07;18.00;99.90
27667;DHT22;15074;50.940;5.282;2023-10-13T05:22:51;18.00;99.90
27667;DHT22;15074;50.940;5.282;2023-10-13T05:25:36;18.00;99.90
27667;DHT22;15074;50.940;5.282;2023-10-13T05:28:20;18.00;99.90
27667;DHT22;15074;50.940;5.282;2023-10-13T05:31:04;18.00;99.90
27667;DHT22;15074;50.940;5.282;2023-10-13T05:33:48;18.00;99.90
27667;DHT22;15074;50.940;5.282;2023-10-13T05:36:33;18.00;99.90
27667;DHT22;15074;50.940;5.282;2023-10-13T05:39:17;18.00;99.90
27667;DHT22;15074;50.940;5.282;2023-10-13T05:42:01;17.90;99.90
27667;DHT22;15074;50.940;5.282;2023-10-13T05:44:45;17.90;99.90
27667;DHT22;15074;50.940;5.282;2023-10-13T05:47:30;17.90;99.90
27667;DHT22;15074;50.940;5.282;2023-10-13T05:50:08;17.90;99.90
27667;DHT22;15074;50.940;5.282;2023-10-13T05:52:46;17.90;99.90
27667;DHT22;15074;50.940;5.282;2023-10-13T05:55:28;17.90;99.90
27667;DHT22;15074;50.940;5.282;2023-10-13T05:58:13;18.00;99.90
27667;DHT22;15074;50.940;5.282;2023-10-13T06:00:58;18.00;99.90
27667;DHT22;15074;50.940;5.282;2023-10-13T06:03:43;18.00;99.90
27667;DHT22;15074;50.940;5.282;2023-10-13T06:06:27;18.00;99.90
27667;DHT22;15074;50.940;5.282;2023-10-13T06:09:12;18.10;99.90
27667;DHT22;15074;50.940;5.282;2023-10-13T06:11:56;18.10;99.90
27667;DHT22;15074;50.940;5.282;2023-10-13T06:14:40;18.10;99.90
27667;DHT22;15074;50.940;5.282;2023-10-13T06:17:24;18.10;99.90
27667;DHT22;15074;50.940;5.282;2023-10-13T06:20:08;18.10;99.90
27667;DHT22;15074;50.940;5.282;2023-10-13T06:22:53;18.20;99.90
27667;DHT22;15074;50.940;5.282;2023-10-13T06:25:37;18.20;99.90
27667;DHT22;15074;50.940;5.282;2023-10-13T06:28:22;18.10;99.90
27667;DHT22;15074;50.940;5.282;2023-10-13T06:31:07;18.10;99.90
27667;DHT22;15074;50.940;5.282;2023-10-13T06:33:36;18.10;99.90
27667;DHT22;15074;50.940;5.282;2023-10-13T06:36:07;18.10;99.90
27667;DHT22;15074;50.940;5.282;2023-10-13T06:38:36;18.20;99.90
27667;DHT22;15074;50.940;5.282;2023-10-13T06:41:05;18.20;99.90
27667;DHT22;15074;50.940;5.282;2023-10-13T06:43:37;18.30;99.90
27667;DHT22;15074;50.940;5.282;2023-10-13T06:46:12;18.30;99.90
27667;DHT22;15074;50.940;5.282;2023-10-13T06:48:49;18.40;99.90
27667;DHT22;15074;50.940;5.282;2023-10-13T06:51:19;18.40;99.90
27667;DHT22;15074;50.940;5.282;2023-10-13T06:53:48;18.60;99.90
27667;DHT22;15074;50.940;5.282;2023-10-13T06:56:17;18.60;99.90
27667;DHT22;15074;50.940;5.282;2023-10-13T06:58:54;18.60;99.90
27667;DHT22;15074;50.940;5.282;2023-10-13T07:01:26;18.70;99.90
27667;DHT22;15074;50.940;5.282;2023-10-13T07:03:52;18.80;99.90
27667;DHT22;15074;50.940;5.282;2023-10-13T07:06:27;18.80;99.90
27667;DHT22;15074;50.940;5.282;2023-10-13T07:08:53;18.90;99.90
27667;DHT22;15074;50.940;5.282;2023-10-13T07:11:24;19.00;99.90
27667;DHT22;15074;50.940;5.282;2023-10-13T07:14:03;19.10;99.90
27667;DHT22;15074;50.940;5.282;2023-10-13T07:16:42;19.10;99.90
27667;DHT22;15074;50.940;5.282;2023-10-13T07:19:12;19.20;99.90
27667;DHT22;15074;50.940;5.282;2023-10-13T07:21:45;19.20;99.90
27667;DHT22;15074;50.940;5.282;2023-10-13T07:24:12;19.30;99.90
27667;DHT22;15074;50.940;5.282;2023-10-13T07:26:39;19.40;99.90
27667;DHT22;15074;50.940;5.282;2023-10-13T07:29:09;19.50;99.90
27667;DHT22;15074;50.940;5.282;2023-10-13T07:31:35;19.60;99.90
27667;DHT22;15074;50.940;5.282;2023-10-13T07:34:04;19.70;99.90
27667;DHT22;15074;50.940;5.282;2023-10-13T07:36:39;20.00;99.90
27667;DHT22;15074;50.940;5.282;2023-10-13T07:39:06;20.30;99.90
27667;DHT22;15074;50.940;5.282;2023-10-13T07:41:49;20.50;99.90
27667;DHT22;15074;50.940;5.282;2023-10-13T07:44:45;20.70;99.90
27667;DHT22;15074;50.940;5.282;2023-10-13T07:47:13;20.40;99.90
27667;DHT22;15074;50.940;5.282;2023-10-13T07:49:43;20.30;99.90
27667;DHT22;15074;50.940;5.282;2023-10-13T07:52:11;20.20;99.90
27667;DHT22;15074;50.940;5.282;2023-10-13T07:54:47;20.10;99.90
27667;DHT22;15074;50.940;5.282;2023-10-13T07:57:24;20.20;99.90
27667;DHT22;15074;50.940;5.282;2023-10-13T07:59:56;20.50;99.90
27667;DHT22;15074;50.940;5.282;2023-10-13T08:02:37;21.00;99.90
27667;DHT22;15074;50.940;5.282;2023-10-13T08:05:17;21.30;99.90
27667;DHT22;15074;50.940;5.282;2023-10-13T08:08:05;21.30;99.90
27667;DHT22;15074;50.940;5.282;2023-10-13T08:10:40;21.50;99.90
27667;DHT22;15074;50.940;5.282;2023-10-13T08:13:07;22.10;99.90
27667;DHT22;15074;50.940;5.282;2023-10-13T08:15:40;21.80;99.90
27667;DHT22;15074;50.940;5.282;2023-10-13T08:18:13;21.60;99.90
27667;DHT22;15074;50.940;5.282;2023-10-13T08:20:57;21.70;99.90
27667;DHT22;15074;50.940;5.282;2023-10-13T08:23:29;21.90;99.90
27667;DHT22;15074;50.940;5.282;2023-10-13T08:26:13;21.80;99.90
27667;DHT22;15074;50.940;5.282;2023-10-13T08:29:00;21.80;99.90
27667;DHT22;15074;50.940;5.282;2023-10-13T08:31:47;22.10;99.90
27667;DHT22;15074;50.940;5.282;2023-10-13T08:34:34;22.30;99.90
27667;DHT22;15074;50.940;5.282;2023-10-13T08:37:10;22.20;99.90
27667;DHT22;15074;50.940;5.282;2023-10-13T08:39:55;22.00;99.90
27667;DHT22;15074;50.940;5.282;2023-10-13T08:42:45;22.50;99.90
27667;DHT22;15074;50.940;5.282;2023-10-13T08:45:12;23.60;99.90
27667;DHT22;15074;50.940;5.282;2023-10-13T08:47:48;23.50;99.90
27667;DHT22;15074;50.940;5.282;2023-10-13T08:50:34;23.00;99.90
27667;DHT22;15074;50.940;5.282;2023-10-13T08:53:28;22.40;99.90
27667;DHT22;15074;50.940;5.282;2023-10-13T08:56:09;21.90;99.90
27667;DHT22;15074;50.940;5.282;2023-10-13T08:58:57;21.90;99.90
27667;DHT22;15074;50.940;5.282;2023-10-13T09:01:30;21.90;99.90
27667;DHT22;15074;50.940;5.282;2023-10-13T09:03:58;21.90;99.90
27667;DHT22;15074;50.940;5.282;2023-10-13T09:06:53;22.00;99.90
27667;DHT22;15074;50.940;5.282;2023-10-13T09:12:12;21.90;99.90
27667;DHT22;15074;50.940;5.282;2023-10-13T09:14:41;21.90;99.90
27667;DHT22;15074;50.940;5.282;2023-10-13T09:17:11;21.90;99.90
27667;DHT22;15074;50.940;5.282;2023-10-13T09:19:53;22.10;99.90
27667;DHT22;15074;50.940;5.282;2023-10-13T09:22:26;22.40;99.90
27667;DHT22;15074;50.940;5.282;2023-10-13T09:24:59;22.40;99.90
27667;DHT22;15074;50.940;5.282;2023-10-13T09:27:32;22.50;99.90
27667;DHT22;15074;50.940;5.282;2023-10-13T09:29:59;22.50;99.90
27667;DHT22;15074;50.940;5.282;2023-10-13T09:32:33;22.40;99.90
27667;DHT22;15074;50.940;5.282;2023-10-13T09:35:21;22.40;99.90
27667;DHT22;15074;50.940;5.282;2023-10-13T09:37:53;22.30;99.90
27667;DHT22;15074;50.940;5.282;2023-10-13T09:40:22;22.40;99.90
27667;DHT22;15074;50.940;5.282;2023-10-13T09:42:55;22.60;99.90
27667;DHT22;15074;50.940;5.282;2023-10-13T09:45:28;23.00;99.90
27667;DHT22;15074;50.940;5.282;2023-10-13T09:48:02;23.50;99.90
27667;DHT22;15074;50.940;5.282;2023-10-13T09:50:40;23.50;99.90
27667;DHT22;15074;50.940;5.282;2023-10-13T09:53:10;23.30;99.90
27667;DHT22;15074;50.940;5.282;2023-10-13T09:55:43;23.00;99.90
27667;DHT22;15074;50.940;5.282;2023-10-13T09:58:12;22.70;99.90
27667;DHT22;15074;50.940;5.282;2023-10-13T10:00:49;22.60;99.90
27667;DHT22;15074;50.940;5.282;2023-10-13T10:03:23;22.50;99.90
27667;DHT22;15074;50.940;5.282;2023-10-13T10:06:00;22.40;99.90
27667;DHT22;15074;50.940;5.282;2023-10-13T10:08:30;22.60;99.90
27667;DHT22;15074;50.940;5.282;2023-10-13T10:14:15;22.50;99.90
27667;DHT22;15074;50.940;5.282;2023-10-13T10:16:49;22.50;99.90
27667;DHT22;15074;50.940;5.282;2023-10-13T10:19:15;22.40;99.90
27667;DHT22;15074;50.940;5.282;2023-10-13T10:21:41;22.40;99.90
27667;DHT22;15074;50.940;5.282;2023-10-13T10:24:15;22.40;99.90
27667;DHT22;15074;50.940;5.282;2023-10-13T10:26:51;22.40;99.90
27667;DHT22;15074;50.940;5.282;2023-10-13T10:29:20;22.40;99.90
27667;DHT22;15074;50.940;5.282;2023-10-13T10:31:45;22.40;99.90
27667;DHT22;15074;50.940;5.282;2023-10-13T10:34:15;22.40;99.90
27667;DHT22;15074;50.940;5.282;2023-10-13T10:36:47;22.50;99.90
27667;DHT22;15074;50.940;5.282;2023-10-13T10:39:12;22.70;99.90
27667;DHT22;15074;50.940;5.282;2023-10-13T10:41:38;23.00;99.90
27667;DHT22;15074;50.940;5.282;2023-10-13T10:44:19;23.20;99.90
27667;DHT22;15074;50.940;5.282;2023-10-13T10:47:10;23.20;99.90
27667;DHT22;15074;50.940;5.282;2023-10-13T10:49:39;23.50;99.90
27667;DHT22;15074;50.940;5.282;2023-10-13T10:52:09;23.30;99.90
27667;DHT22;15074;50.940;5.282;2023-10-13T10:54:40;23.50;99.90
27667;DHT22;15074;50.940;5.282;2023-10-13T10:57:11;23.40;99.90
27667;DHT22;15074;50.940;5.282;2023-10-13T10:59:43;23.30;99.90
27667;DHT22;15074;50.940;5.282;2023-10-13T11:02:08;23.40;99.90
27667;DHT22;15074;50.940;5.282;2023-10-13T11:04:35;23.40;99.90
27667;DHT22;15074;50.940;5.282;2023-10-13T11:07:07;23.30;99.90
27667;DHT22;15074;50.940;5.282;2023-10-13T11:09:35;23.10;99.90
27667;DHT22;15074;50.940;5.282;2023-10-13T11:14:39;23.30;99.90
27667;DHT22;15074;50.940;5.282;2023-10-13T11:17:05;23.10;99.90
27667;DHT22;15074;50.940;5.282;2023-10-13T11:19:40;23.00;99.90
27667;DHT22;15074;50.940;5.282;2023-10-13T11:22:12;22.90;99.90
27667;DHT22;15074;50.940;5.282;2023-10-13T11:24:55;22.90;99.90
27667;DHT22;15074;50.940;5.282;2023-10-13T11:27:35;23.00;99.90
27667;DHT22;15074;50.940;5.282;2023-10-13T11:30:17;22.90;99.90
27667;DHT22;15074;50.940;5.282;2023-10-13T11:33:04;23.10;99.90
27667;DHT22;15074;50.940;5.282;2023-10-13T11:35:40;23.30;99.90
27667;DHT22;15074;50.940;5.282;2023-10-13T11:38:28;23.40;99.90
27667;DHT22;15074;50.940;5.282;2023-10-13T11:41:02;23.90;99.90
27667;DHT22;15074;50.940;5.282;2023-10-13T11:43:36;24.40;99.90
27667;DHT22;15074;50.940;5.282;2023-10-13T11:46:10;24.70;99.90
27667;DHT22;15074;50.940;5.282;2023-10-13T11:48:38;25.40;99.90
27667;DHT22;15074;50.940;5.282;2023-10-13T11:51:06;25.50;99.90
27667;DHT22;15074;50.940;5.282;2023-10-13T11:53:34;25.20;99.90
27667;DHT22;15074;50.940;5.282;2023-10-13T11:56:02;24.50;99.90
27667;DHT22;15074;50.940;5.282;2023-10-13T11:58:37;23.90;99.90
27667;DHT22;15074;50.940;5.282;2023-10-13T12:01:03;23.70;99.90
27667;DHT22;15074;50.940;5.282;2023-10-13T12:03:41;23.60;99.90
27667;DHT22;15074;50.940;5.282;2023-10-13T12:06:26;23.50;99.90
27667;DHT22;15074;50.940;5.282;2023-10-13T12:09:12;23.30;99.90
27667;DHT22;15074;50.940;5.282;2023-10-13T12:12:04;23.30;99.90
27667;DHT22;15074;50.940;5.282;2023-10-13T12:14:30;23.40;99.90
27667;DHT22;15074;50.940;5.282;2023-10-13T12:17:21;23.50;99.90
27667;DHT22;15074;50.940;5.282;2023-10-13T12:20:05;23.40;99.90
27667;DHT22;15074;50.940;5.282;2023-10-13T12:22:35;23.60;99.90
27667;DHT22;15074;50.940;5.282;2023-10-13T12:25:21;23.80;99.90
27667;DHT22;15074;50.940;5.282;2023-10-13T12:28:10;24.80;99.90
27667;DHT22;15074;50.940;5.282;2023-10-13T12:30:44;25.80;99.90
27667;DHT22;15074;50.940;5.282;2023-10-13T12:33:20;25.50;99.90
27667;DHT22;15074;50.940;5.282;2023-10-13T12:36:06;25.40;99.90
27667;DHT22;15074;50.940;5.282;2023-10-13T12:38:37;25.60;99.90
27667;DHT22;15074;50.940;5.282;2023-10-13T12:41:17;25.80;99.90
27667;DHT22;15074;50.940;5.282;2023-10-13T12:44:03;25.70;99.90
27667;DHT22;15074;50.940;5.282;2023-10-13T12:46:47;25.20;99.90
27667;DHT22;15074;50.940;5.282;2023-10-13T12:49:34;24.50;99.90
27667;DHT22;15074;50.940;5.282;2023-10-13T12:52:06;24.30;99.90
27667;DHT22;15074;50.940;5.282;2023-10-13T12:54:45;24.00;99.90
27667;DHT22;15074;50.940;5.282;2023-10-13T12:57:29;23.80;99.90
27667;DHT22;15074;50.940;5.282;2023-10-13T12:59:57;23.70;99.90
27667;DHT22;15074;50.940;5.282;2023-10-13T13:02:23;23.50;99.90
27667;DHT22;15074;50.940;5.282;2023-10-13T13:04:51;23.30;99.90
27667;DHT22;15074;50.940;5.282;2023-10-13T13:07:20;23.20;99.90
27667;DHT22;15074;50.940;5.282;2023-10-13T13:09:46;23.20;99.90
27667;DHT22;15074;50.940;5.282;2023-10-13T13:12:11;23.30;99.90
27667;DHT22;15074;50.940;5.282;2023-10-13T13:14:40;23.10;99.90
27667;DHT22;15074;50.940;5.282;2023-10-13T13:17:11;23.20;99.90
27667;DHT22;15074;50.940;5.282;2023-10-13T13:19:37;23.20;99.90
27667;DHT22;15074;50.940;5.282;2023-10-13T13:22:08;23.00;99.90
27667;DHT22;15074;50.940;5.282;2023-10-13T13:24:40;22.90;99.90
27667;DHT22;15074;50.940;5.282;2023-10-13T13:27:16;22.90;99.90
27667;DHT22;15074;50.940;5.282;2023-10-13T13:29:47;23.00;99.90
27667;DHT22;15074;50.940;5.282;2023-10-13T13:32:13;22.90;99.90
27667;DHT22;15074;50.940;5.282;2023-10-13T13:34:49;22.90;99.90
27667;DHT22;15074;50.940;5.282;2023-10-13T13:37:30;22.90;99.90
27667;DHT22;15074;50.940;5.282;2023-10-13T13:39:56;22.90;99.90
27667;DHT22;15074;50.940;5.282;2023-10-13T13:42:27;22.80;99.90
27667;DHT22;15074;50.940;5.282;2023-10-13T13:44:54;22.60;99.90
27667;DHT22;15074;50.940;5.282;2023-10-13T13:47:24;22.50;99.90
27667;DHT22;15074;50.940;5.282;2023-10-13T13:49:50;22.50;99.90
27667;DHT22;15074;50.940;5.282;2023-10-13T13:52:20;22.40;99.90
27667;DHT22;15074;50.940;5.282;2023-10-13T13:54:59;22.50;99.90
27667;DHT22;15074;50.940;5.282;2023-10-13T13:57:28;22.60;99.90
27667;DHT22;15074;50.940;5.282;2023-10-13T13:59:55;22.60;99.90
27667;DHT22;15074;50.940;5.282;2023-10-13T14:02:23;22.50;99.90
27667;DHT22;15074;50.940;5.282;2023-10-13T14:04:49;22.50;99.90
27667;DHT22;15074;50.940;5.282;2023-10-13T14:07:21;22.50;99.90
27667;DHT22;15074;50.940;5.282;2023-10-13T14:09:49;22.50;99.90
27667;DHT22;15074;50.940;5.282;2023-10-13T14:12:18;22.50;99.90
27667;DHT22;15074;50.940;5.282;2023-10-13T14:15:10;22.40;99.90
27667;DHT22;15074;50.940;5.282;2023-10-13T14:17:49;22.40;99.90
27667;DHT22;15074;50.940;5.282;2023-10-13T14:20:15;22.40;99.90
27667;DHT22;15074;50.940;5.282;2023-10-13T14:22:44;22.40;99.90
27667;DHT22;15074;50.940;5.282;2023-10-13T14:25:14;22.30;99.90
27667;DHT22;15074;50.940;5.282;2023-10-13T14:27:43;22.30;99.90
27667;DHT22;15074;50.940;5.282;2023-10-13T14:30:09;22.30;99.90
27667;DHT22;15074;50.940;5.282;2023-10-13T14:32:35;22.40;99.90
27667;DHT22;15074;50.940;5.282;2023-10-13T14:35:06;22.40;99.90
27667;DHT22;15074;50.940;5.282;2023-10-13T14:37:40;22.30;99.90
27667;DHT22;15074;50.940;5.282;2023-10-13T14:40:06;22.20;99.90
27667;DHT22;15074;50.940;5.282;2023-10-13T14:42:38;22.30;99.90
27667;DHT22;15074;50.940;5.282;2023-10-13T14:45:06;22.30;99.90
27667;DHT22;15074;50.940;5.282;2023-10-13T14:47:38;22.20;99.90
27667;DHT22;15074;50.940;5.282;2023-10-13T14:50:05;22.30;99.90
27667;DHT22;15074;50.940;5.282;2023-10-13T14:52:31;22.20;99.90
27667;DHT22;15074;50.940;5.282;2023-10-13T14:54:58;22.30;99.90
27667;DHT22;15074;50.940;5.282;2023-10-13T14:57:24;22.30;99.90
27667;DHT22;15074;50.940;5.282;2023-10-13T14:59:53;22.20;99.90
27667;DHT22;15074;50.940;5.282;2023-10-13T15:02:20;22.20;99.90
27667;DHT22;15074;50.940;5.282;2023-10-13T15:04:49;22.10;99.90
27667;DHT22;15074;50.940;5.282;2023-10-13T15:07:15;22.10;99.90
27667;DHT22;15074;50.940;5.282;2023-10-13T15:09:45;22.10;99.90
27667;DHT22;15074;50.940;5.282;2023-10-13T15:12:11;22.00;99.90
27667;DHT22;15074;50.940;5.282;2023-10-13T15:14:40;22.00;99.90
27667;DHT22;15074;50.940;5.282;2023-10-13T15:17:09;22.00;99.90
27667;DHT22;15074;50.940;5.282;2023-10-13T15:19:36;21.90;99.90
27667;DHT22;15074;50.940;5.282;2023-10-13T15:22:04;21.90;99.90
27667;DHT22;15074;50.940;5.282;2023-10-13T15:24:37;21.90;99.90
27667;DHT22;15074;50.940;5.282;2023-10-13T15:27:11;21.70;99.90
27667;DHT22;15074;50.940;5.282;2023-10-13T15:29:36;21.60;99.90
27667;DHT22;15074;50.940;5.282;2023-10-13T15:32:03;21.50;99.90
27667;DHT22;15074;50.940;5.282;2023-10-13T15:34:29;21.50;99.90
27667;DHT22;15074;50.940;5.282;2023-10-13T15:36:56;21.40;99.90
27667;DHT22;15074;50.940;5.282;2023-10-13T15:39:22;21.40;99.90
27667;DHT22;15074;50.940;5.282;2023-10-13T15:41:57;21.30;99.90
27667;DHT22;15074;50.940;5.282;2023-10-13T15:44:28;21.30;99.90
27667;DHT22;15074;50.940;5.282;2023-10-13T15:46:58;21.30;99.90
27667;DHT22;15074;50.940;5.282;2023-10-13T15:49:24;21.30;99.90
27667;DHT22;15074;50.940;5.282;2023-10-13T15:51:53;21.30;99.90
27667;DHT22;15074;50.940;5.282;2023-10-13T15:54:22;21.30;99.90
27667;DHT22;15074;50.940;5.282;2023-10-13T15:56:49;21.10;99.90
27667;DHT22;15074;50.940;5.282;2023-10-13T15:59:16;20.80;99.90
27667;DHT22;15074;50.940;5.282;2023-10-13T16:01:43;20.70;99.90
27667;DHT22;15074;50.940;5.282;2023-10-13T16:04:12;20.40;99.90
27667;DHT22;15074;50.940;5.282;2023-10-13T16:06:44;20.20;99.90
27667;DHT22;15074;50.940;5.282;2023-10-13T16:09:13;20.00;99.90
27667;DHT22;15074;50.940;5.282;2023-10-13T16:11:49;19.90;99.90
27667;DHT22;15074;50.940;5.282;2023-10-13T16:14:15;19.90;99.90
27667;DHT22;15074;50.940;5.282;2023-10-13T16:16:43;19.90;99.90
27667;DHT22;15074;50.940;5.282;2023-10-13T16:19:16;19.90;99.90